Data Viewer
| City | State | Eastern Time | Source | Temp | DewPt | RH | BP | 5 Min Precip | Wind Speed | Wind Dir | 5 Min Wind Max | 5 Min Wind Max Dir |
|---|---|---|---|---|---|---|---|---|---|---|---|---|
| Bridgeport | CT | 2026-05-01 10:10 | ASOS | 55 | 34 | 44 | 29.90 | 13 | N | |||
| Bridgeport | CT | 2026-05-02 03:45 | ASOS | 52 | 46 | 82 | 29.87 | 8 | SW | |||
| Bridgeport | CT | 2026-05-02 02:50 | ASOS | 52 | 46 | 82 | 29.87 | 6 | SSW | |||
| Bridgeport | CT | 2026-05-02 03:05 | ASOS | 52 | 46 | 82 | 29.87 | 6 | SSW | |||
| Bridgeport | CT | 2026-05-02 03:10 | ASOS | 52 | 46 | 82 | 29.87 | 8 | SW | |||
| Bridgeport | CT | 2026-05-02 03:15 | ASOS | 52 | 46 | 82 | 29.87 | 8 | SW | |||
| Bridgeport | CT | 2026-05-02 03:20 | ASOS | 52 | 46 | 82 | 29.87 | 8 | SSW | |||
| Bridgeport | CT | 2026-05-02 03:25 | ASOS | 52 | 46 | 82 | 29.87 | 8 | SSW | |||
| Bridgeport | CT | 2026-05-02 03:30 | ASOS | 52 | 46 | 82 | 29.87 | 7 | SSW | |||
| Bridgeport | CT | 2026-05-02 03:35 | ASOS | 52 | 46 | 82 | 29.87 | 7 | SSW | |||
| Bridgeport | CT | 2026-05-02 03:40 | ASOS | 52 | 46 | 82 | 29.87 | 7 | SW | |||
| Bridgeport | CT | 2026-05-02 03:50 | ASOS | 52 | 46 | 82 | 29.87 | 7 | SW | |||
| Bridgeport | CT | 2026-05-02 02:35 | ASOS | 52 | 45 | 76 | 29.87 | 3 | S | |||
| Bridgeport | CT | 2026-05-02 04:00 | ASOS | 52 | 46 | 82 | 29.87 | 8 | SW | |||
| Bridgeport | CT | 2026-05-02 04:05 | ASOS | 52 | 46 | 82 | 29.87 | 8 | SW | |||
| Bridgeport | CT | 2026-05-02 04:10 | ASOS | 52 | 46 | 82 | 29.87 | 6 | WSW | |||
| Bridgeport | CT | 2026-05-02 04:15 | ASOS | 52 | 48 | 87 | 29.87 | 6 | WSW | |||
| Bridgeport | CT | 2026-05-02 04:25 | ASOS | 52 | 48 | 87 | 29.87 | 3 | WSW | |||
| Bridgeport | CT | 2026-05-02 04:30 | ASOS | 52 | 46 | 82 | 29.86 | 0 | N | |||
| Bridgeport | CT | 2026-05-02 04:35 | ASOS | 52 | 46 | 82 | 29.87 | 3 | WSW | |||
| Bridgeport | CT | 2026-05-02 04:40 | ASOS | 52 | 46 | 82 | 29.87 | 5 | SW | |||
| Bridgeport | CT | 2026-05-02 04:45 | ASOS | 52 | 46 | 82 | 29.87 | 8 | SW | |||
| Bridgeport | CT | 2026-05-02 04:50 | ASOS | 52 | 46 | 82 | 29.87 | 6 | SW | |||
| Bridgeport | CT | 2026-05-02 02:40 | ASOS | 52 | 45 | 76 | 29.87 | 5 | SSW | |||
| Bridgeport | CT | 2026-05-02 02:30 | ASOS | 50 | 45 | 82 | 29.87 | 0 | N | |||
| Bridgeport | CT | 2026-05-02 05:20 | ASOS | 52 | 45 | 76 | 29.87 | 6 | SW | |||
| Bridgeport | CT | 2026-05-02 00:40 | ASOS | 52 | 45 | 76 | 29.89 | 7 | S | |||
| Bridgeport | CT | 2026-05-01 23:25 | ASOS | 52 | 43 | 71 | 29.90 | 6 | SSW | |||
| Bridgeport | CT | 2026-05-01 23:30 | ASOS | 52 | 43 | 71 | 29.90 | 8 | SSW | |||
| Bridgeport | CT | 2026-05-01 23:45 | ASOS | 52 | 43 | 71 | 29.89 | 7 | S | |||
| Bridgeport | CT | 2026-05-01 23:50 | ASOS | 52 | 43 | 71 | 29.89 | 7 | S | |||
| Bridgeport | CT | 2026-05-02 00:05 | ASOS | 52 | 45 | 76 | 29.89 | 7 | S | |||
| Bridgeport | CT | 2026-05-02 00:10 | ASOS | 52 | 45 | 76 | 29.89 | 7 | SSW | |||
| Bridgeport | CT | 2026-05-02 00:15 | ASOS | 52 | 45 | 76 | 29.89 | 5 | SSW | |||
| Bridgeport | CT | 2026-05-02 00:20 | ASOS | 52 | 45 | 76 | 29.89 | 5 | SSW | |||
| Bridgeport | CT | 2026-05-02 00:30 | ASOS | 52 | 45 | 76 | 29.89 | 7 | S | |||
| Bridgeport | CT | 2026-05-02 00:35 | ASOS | 52 | 45 | 76 | 29.89 | 9 | S | |||
| Bridgeport | CT | 2026-05-02 00:45 | ASOS | 52 | 45 | 76 | 29.89 | 6 | S | |||
| Bridgeport | CT | 2026-05-02 02:15 | ASOS | 50 | 45 | 82 | 29.88 | 0 | N | |||
| Bridgeport | CT | 2026-05-02 00:50 | ASOS | 52 | 45 | 76 | 29.89 | 3 | SSW | |||
| Bridgeport | CT | 2026-05-02 01:00 | ASOS | 52 | 45 | 76 | 29.89 | 5 | SSW | |||
| Bridgeport | CT | 2026-05-02 01:15 | ASOS | 52 | 45 | 76 | 29.88 | 3 | S | |||
| Bridgeport | CT | 2026-05-02 01:25 | ASOS | 50 | 45 | 82 | 29.88 | 3 | S | |||
| Bridgeport | CT | 2026-05-02 01:30 | ASOS | 52 | 45 | 76 | 29.88 | 0 | N | |||
| Bridgeport | CT | 2026-05-02 01:35 | ASOS | 52 | 45 | 76 | 29.88 | 0 | N | |||
| Bridgeport | CT | 2026-05-02 01:45 | ASOS | 50 | 45 | 82 | 29.88 | 0 | N | |||
| Bridgeport | CT | 2026-05-02 01:50 | ASOS | 50 | 45 | 82 | 29.87 | 0 | N | |||
| Bridgeport | CT | 2026-05-02 02:05 | ASOS | 52 | 45 | 76 | 29.88 | 3 | SSW | |||
| Bridgeport | CT | 2026-05-02 02:10 | ASOS | 52 | 45 | 76 | 29.88 | 3 | S | |||
| Bridgeport | CT | 2026-05-02 05:05 | ASOS | 52 | 46 | 82 | 29.87 | 5 | SW | |||
| Bridgeport | CT | 2026-05-02 05:25 | ASOS | 52 | 45 | 76 | 29.87 | 3 | WSW | |||
| Bridgeport | CT | 2026-05-01 22:50 | ASOS | 52 | 43 | 71 | 29.90 | 5 | S | |||
| Bridgeport | CT | 2026-05-02 08:55 | ASOS | 52 | 45 | 76 | 29.89 | 0 | N | |||
| Bridgeport | CT | 2026-05-02 08:15 | ASOS | 52 | 46 | 82 | 29.89 | 5 | NW | |||
| Bridgeport | CT | 2026-05-02 08:20 | ASOS | 52 | 45 | 76 | 29.89 | 3 | NNW | |||
| Bridgeport | CT | 2026-05-02 08:25 | ASOS | 52 | 45 | 76 | 29.89 | 0 | N | |||
| Bridgeport | CT | 2026-05-02 08:30 | ASOS | 52 | 45 | 76 | 29.89 | 0 | N | |||
| Bridgeport | CT | 2026-05-02 08:35 | ASOS | 52 | 45 | 76 | 29.89 | 0 | N | |||
| Bridgeport | CT | 2026-05-02 08:40 | ASOS | 52 | 45 | 76 | 29.88 | 0 | N | |||
| Bridgeport | CT | 2026-05-02 08:45 | ASOS | 52 | 45 | 76 | 29.89 | 0 | N | |||
| Bridgeport | CT | 2026-05-02 08:50 | ASOS | 52 | 45 | 76 | 29.88 | 0 | N | |||
| Bridgeport | CT | 2026-05-02 08:52 | ASOS | 52 | 44 | 74 | 29.89 | 0 | N | |||
| Bridgeport | CT | 2026-05-02 09:00 | ASOS | 52 | 45 | 76 | 29.89 | 0 | N | |||
| Bridgeport | CT | 2026-05-02 08:05 | ASOS | 52 | 46 | 82 | 29.89 | 6 | NW | |||
| Bridgeport | CT | 2026-05-02 09:05 | ASOS | 52 | 45 | 76 | 29.89 | 0 | N | |||
| Bridgeport | CT | 2026-05-02 09:10 | ASOS | 52 | 45 | 76 | 29.89 | 0 | N | |||
| Bridgeport | CT | 2026-05-02 09:15 | ASOS | 54 | 45 | 71 | 29.89 | 3 | SSW | |||
| Bridgeport | CT | 2026-05-02 09:20 | ASOS | 54 | 45 | 71 | 29.89 | 3 | S | |||
| Bridgeport | CT | 2026-05-02 09:25 | ASOS | 54 | 45 | 71 | 29.89 | 5 | SSW | |||
| Bridgeport | CT | 2026-05-02 09:30 | ASOS | 54 | 43 | 67 | 29.89 | 5 | SW | |||
| Bridgeport | CT | 2026-05-02 09:35 | ASOS | 54 | 45 | 71 | 29.89 | 5 | SW | |||
| Bridgeport | CT | 2026-05-02 09:40 | ASOS | 54 | 45 | 71 | 29.89 | 6 | SW | |||
| Bridgeport | CT | 2026-05-02 09:45 | ASOS | 54 | 43 | 67 | 29.89 | 5 | SW | |||
| Bridgeport | CT | 2026-05-02 09:50 | ASOS | 54 | 45 | 71 | 29.89 | 5 | WSW | |||
| Bridgeport | CT | 2026-05-02 08:10 | ASOS | 52 | 46 | 82 | 29.89 | 8 | NW | |||
| Bridgeport | CT | 2026-05-02 08:00 | ASOS | 52 | 46 | 82 | 29.89 | 6 | NW | |||
| Bridgeport | CT | 2026-05-02 05:35 | ASOS | 52 | 46 | 82 | 29.88 | 3 | W | |||
| Bridgeport | CT | 2026-05-02 07:00 | ASOS | 50 | 45 | 82 | 29.88 | 6 | N | |||
| Bridgeport | CT | 2026-05-02 05:40 | ASOS | 52 | 46 | 82 | 29.87 | 3 | W | |||
| Bridgeport | CT | 2026-05-02 05:45 | ASOS | 52 | 46 | 82 | 29.87 | 3 | W | |||
| Bridgeport | CT | 2026-05-02 05:50 | ASOS | 52 | 46 | 82 | 29.87 | 0 | N | |||
| Bridgeport | CT | 2026-05-02 05:55 | ASOS | 50 | 45 | 82 | 29.87 | 3 | WNW | |||
| Bridgeport | CT | 2026-05-02 06:15 | ASOS | 50 | 45 | 82 | 29.88 | 3 | NNW | |||
| Bridgeport | CT | 2026-05-02 06:25 | ASOS | 52 | 45 | 76 | 29.89 | 6 | WNW | |||
| Bridgeport | CT | 2026-05-02 06:30 | ASOS | 50 | 45 | 82 | 29.88 | 8 | NW | |||
| Bridgeport | CT | 2026-05-02 06:35 | ASOS | 50 | 45 | 82 | 29.89 | 5 | WNW | |||
| Bridgeport | CT | 2026-05-02 06:50 | ASOS | 50 | 45 | 82 | 29.89 | 3 | NW | |||
| Bridgeport | CT | 2026-05-02 06:52 | ASOS | 50 | 45 | 82 | 29.89 | 3 | NNW | |||
| Bridgeport | CT | 2026-05-02 07:05 | ASOS | 52 | 45 | 76 | 29.89 | 6 | NW | |||
| Bridgeport | CT | 2026-05-02 07:55 | ASOS | 52 | 46 | 82 | 29.89 | 3 | N | |||
| Bridgeport | CT | 2026-05-02 07:10 | ASOS | 50 | 45 | 82 | 29.89 | 0 | N | |||
| Bridgeport | CT | 2026-05-02 07:15 | ASOS | 52 | 45 | 76 | 29.89 | 0 | N | |||
| Bridgeport | CT | 2026-05-02 07:20 | ASOS | 52 | 45 | 76 | 29.88 | 6 | ENE | |||
| Bridgeport | CT | 2026-05-02 07:25 | ASOS | 52 | 46 | 82 | 29.87 | 8 | ENE | |||
| Bridgeport | CT | 2026-05-02 07:30 | ASOS | 50 | 46 | 87 | 29.87 | 7 | ENE | |||
| Bridgeport | CT | 2026-05-02 07:35 | ASOS | 52 | 46 | 82 | 29.88 | 5 | E | |||
| Bridgeport | CT | 2026-05-02 07:40 | ASOS | 52 | 46 | 82 | 29.88 | 6 | E | |||
| Bridgeport | CT | 2026-05-02 07:45 | ASOS | 52 | 46 | 82 | 29.88 | 7 | E | |||
| Bridgeport | CT | 2026-05-02 07:50 | ASOS | 52 | 46 | 82 | 29.88 | 3 | NE | |||
| Bridgeport | CT | 2026-05-02 07:52 | ASOS | 51 | 46 | 83 | 29.89 | 3 | NNE | |||
| Bridgeport | CT | 2026-05-01 22:55 | ASOS | 52 | 43 | 71 | 29.89 | 5 | S | |||
| Bridgeport | CT | 2026-05-01 22:45 | ASOS | 52 | 43 | 71 | 29.90 | 3 | S | |||
| Bridgeport | CT | 2026-05-01 10:25 | ASOS | 54 | 34 | 47 | 29.90 | 7 | NW | |||
| Bridgeport | CT | 2026-05-01 15:00 | ASOS | 59 | 35 | 41 | 29.85 | 12 | S | |||
| Bridgeport | CT | 2026-05-01 13:50 | ASOS | 57 | 35 | 44 | 29.87 | 15 | SSW | |||
| Bridgeport | CT | 2026-05-01 14:00 | ASOS | 57 | 35 | 44 | 29.86 | 17 | S | |||
| Bridgeport | CT | 2026-05-01 14:05 | ASOS | 57 | 35 | 44 | 29.86 | 15 | SSW | |||
| Bridgeport | CT | 2026-05-01 14:10 | ASOS | 57 | 37 | 47 | 29.86 | 12 | S | |||
| Bridgeport | CT | 2026-05-01 14:20 | ASOS | 59 | 34 | 39 | 29.86 | 16 | SSW | |||
| Bridgeport | CT | 2026-05-01 14:25 | ASOS | 59 | 32 | 36 | 29.86 | 17 | SSW | |||
| Bridgeport | CT | 2026-05-01 14:40 | ASOS | 61 | 32 | 34 | 29.86 | 15 | SSW | |||
| Bridgeport | CT | 2026-05-01 14:45 | ASOS | 61 | 30 | 31 | 29.85 | 13 | S | |||
| Bridgeport | CT | 2026-05-01 14:55 | ASOS | 59 | 34 | 39 | 29.85 | 12 | S | |||
| Bridgeport | CT | 2026-05-01 15:05 | ASOS | 59 | 34 | 39 | 29.85 | 13 | S | |||
| Bridgeport | CT | 2026-05-01 13:40 | ASOS | 57 | 35 | 44 | 29.87 | 14 | SSW | |||
| Bridgeport | CT | 2026-05-01 15:10 | ASOS | 61 | 32 | 34 | 29.85 | 13 | S | |||
| Bridgeport | CT | 2026-05-01 15:20 | ASOS | 61 | 35 | 39 | 29.85 | 13 | SSW | |||
| Bridgeport | CT | 2026-05-01 15:25 | ASOS | 61 | 35 | 39 | 29.85 | 14 | SSW | |||
| Bridgeport | CT | 2026-05-01 15:35 | ASOS | 61 | 34 | 36 | 29.84 | 13 | SSW | |||
| Bridgeport | CT | 2026-05-01 15:40 | ASOS | 61 | 35 | 39 | 29.84 | 13 | SSW | |||
| Bridgeport | CT | 2026-05-01 15:45 | ASOS | 61 | 35 | 39 | 29.84 | 14 | SSW | |||
| Bridgeport | CT | 2026-05-01 15:50 | ASOS | 61 | 35 | 39 | 29.84 | 14 | SSW | |||
| Bridgeport | CT | 2026-05-01 16:00 | ASOS | 61 | 37 | 42 | 29.83 | 14 | SSW | |||
| Bridgeport | CT | 2026-05-01 16:05 | ASOS | 61 | 35 | 39 | 29.83 | 14 | SSW | |||
| Bridgeport | CT | 2026-05-01 16:10 | ASOS | 61 | 34 | 36 | 29.83 | 14 | SSW | |||
| Bridgeport | CT | 2026-05-01 13:45 | ASOS | 57 | 35 | 44 | 29.87 | 15 | SSW | |||
| Bridgeport | CT | 2026-05-01 13:35 | ASOS | 57 | 35 | 44 | 29.87 | 14 | SSW | |||
| Bridgeport | CT | 2026-05-01 16:20 | ASOS | 61 | 35 | 39 | 29.83 | 13 | SSW | |||
| Bridgeport | CT | 2026-05-01 11:45 | ASOS | 57 | 32 | 38 | 29.89 | 8 | WNW | |||
| Bridgeport | CT | 2026-05-01 10:35 | ASOS | 55 | 34 | 44 | 29.89 | 7 | NW | |||
| Bridgeport | CT | 2026-05-01 10:45 | ASOS | 55 | 32 | 41 | 29.89 | |||||
| Bridgeport | CT | 2026-05-01 10:55 | ASOS | 55 | 32 | 41 | 29.89 | 6 | NW | |||
| Bridgeport | CT | 2026-05-01 11:05 | ASOS | 55 | 32 | 41 | 29.89 | |||||
| Bridgeport | CT | 2026-05-01 11:15 | ASOS | 57 | 32 | 38 | 29.89 | 9 | NNW | |||
| Bridgeport | CT | 2026-05-01 11:20 | ASOS | 55 | 32 | 41 | 29.89 | 0 | N | |||
| Bridgeport | CT | 2026-05-01 11:25 | ASOS | 57 | 32 | 38 | 29.90 | 5 | WNW | |||
| Bridgeport | CT | 2026-05-01 11:30 | ASOS | 57 | 30 | 36 | 29.89 | |||||
| Bridgeport | CT | 2026-05-01 11:35 | ASOS | 57 | 30 | 36 | 29.90 | 9 | WNW | |||
| Bridgeport | CT | 2026-05-01 11:40 | ASOS | 57 | 34 | 41 | 29.89 | 8 | NNW | |||
| Bridgeport | CT | 2026-05-01 12:10 | ASOS | 55 | 35 | 47 | 29.89 | 15 | SSW | |||
| Bridgeport | CT | 2026-05-01 13:25 | ASOS | 57 | 34 | 41 | 29.87 | 16 | SSW | |||
| Bridgeport | CT | 2026-05-01 12:15 | ASOS | 54 | 37 | 54 | 29.89 | 13 | SSW | |||
| Bridgeport | CT | 2026-05-01 12:20 | ASOS | 55 | 39 | 54 | 29.88 | 15 | S | |||
| Bridgeport | CT | 2026-05-01 12:25 | ASOS | 55 | 37 | 51 | 29.88 | 16 | SSW | |||
| Bridgeport | CT | 2026-05-01 12:30 | ASOS | 55 | 39 | 54 | 29.88 | 15 | SSW | |||
| Bridgeport | CT | 2026-05-01 12:35 | ASOS | 55 | 39 | 54 | 29.88 | 16 | SSW | |||
| Bridgeport | CT | 2026-05-01 12:50 | ASOS | 55 | 37 | 51 | 29.87 | 17 | SSW | |||
| Bridgeport | CT | 2026-05-01 12:55 | ASOS | 55 | 35 | 47 | 29.87 | 16 | SSW | |||
| Bridgeport | CT | 2026-05-01 13:05 | ASOS | 57 | 35 | 44 | 29.87 | 16 | SSW | |||
| Bridgeport | CT | 2026-05-01 13:15 | ASOS | 57 | 34 | 41 | 29.87 | 17 | SSW | |||
| Bridgeport | CT | 2026-05-01 13:20 | ASOS | 55 | 34 | 44 | 29.87 | 16 | SSW | |||
| Bridgeport | CT | 2026-05-01 16:15 | ASOS | 61 | 34 | 36 | 29.83 | 14 | S | |||
| Bridgeport | CT | 2026-05-01 16:30 | ASOS | 63 | 32 | 32 | 29.83 | 15 | SSW | |||
| Bridgeport | CT | 2026-05-01 22:40 | ASOS | 52 | 43 | 71 | 29.90 | 3 | S | |||
| Bridgeport | CT | 2026-05-01 21:20 | ASOS | 54 | 45 | 71 | 29.90 | 6 | W | |||
| Bridgeport | CT | 2026-05-01 20:25 | ASOS | 54 | 43 | 67 | 29.88 | 10 | SW | |||
| Bridgeport | CT | 2026-05-01 20:30 | ASOS | 54 | 43 | 67 | 29.88 | 10 | SW | |||
| Bridgeport | CT | 2026-05-01 20:35 | ASOS | 54 | 43 | 67 | 29.88 | 9 | SW | |||
| Bridgeport | CT | 2026-05-01 20:40 | ASOS | 54 | 43 | 67 | 29.88 | 8 | SW | |||
| Bridgeport | CT | 2026-05-01 20:45 | ASOS | 54 | 43 | 67 | 29.89 | 9 | SW | |||
| Bridgeport | CT | 2026-05-01 20:50 | ASOS | 54 | 43 | 67 | 29.89 | 8 | SW | |||
| Bridgeport | CT | 2026-05-01 20:55 | ASOS | 54 | 43 | 67 | 29.89 | 8 | SW | |||
| Bridgeport | CT | 2026-05-01 21:00 | ASOS | 54 | 43 | 67 | 29.89 | 6 | SW | |||
| Bridgeport | CT | 2026-05-01 21:10 | ASOS | 54 | 45 | 71 | 29.89 | 5 | W | |||
| Bridgeport | CT | 2026-05-01 21:15 | ASOS | 54 | 45 | 71 | 29.89 | 7 | W | |||
| Bridgeport | CT | 2026-05-01 21:30 | ASOS | 54 | 45 | 71 | 29.89 | 3 | WSW | |||
| Bridgeport | CT | 2026-05-01 20:10 | ASOS | 54 | 45 | 71 | 29.87 | 10 | SW | |||
| Bridgeport | CT | 2026-05-01 21:35 | ASOS | 54 | 45 | 71 | 29.89 | 3 | SW | |||
| Bridgeport | CT | 2026-05-01 21:40 | ASOS | 54 | 43 | 67 | 29.89 | 0 | N | |||
| Bridgeport | CT | 2026-05-01 21:45 | ASOS | 54 | 45 | 71 | 29.90 | 3 | SW | |||
| Bridgeport | CT | 2026-05-01 21:50 | ASOS | 54 | 45 | 71 | 29.90 | 5 | SW | |||
| Bridgeport | CT | 2026-05-01 22:00 | ASOS | 54 | 45 | 71 | 29.90 | 5 | SW | |||
| Bridgeport | CT | 2026-05-01 22:15 | ASOS | 54 | 45 | 71 | 29.90 | 6 | S | |||
| Bridgeport | CT | 2026-05-01 22:20 | ASOS | 54 | 45 | 71 | 29.90 | 5 | SSW | |||
| Bridgeport | CT | 2026-05-01 22:25 | ASOS | 54 | 45 | 71 | 29.90 | 6 | SSW | |||
| Bridgeport | CT | 2026-05-01 22:30 | ASOS | 52 | 45 | 76 | 29.90 | 7 | S | |||
| Bridgeport | CT | 2026-05-01 22:35 | ASOS | 52 | 43 | 71 | 29.89 | 6 | S | |||
| Bridgeport | CT | 2026-05-01 20:20 | ASOS | 54 | 43 | 67 | 29.88 | 13 | SW | |||
| Bridgeport | CT | 2026-05-01 20:05 | ASOS | 54 | 45 | 71 | 29.87 | 8 | SW | |||
| Bridgeport | CT | 2026-05-01 16:35 | ASOS | 63 | 34 | 34 | 29.83 | 15 | SSW | |||
| Bridgeport | CT | 2026-05-01 17:55 | ASOS | 63 | 34 | 34 | 29.83 | 13 | SSW | |||
| Bridgeport | CT | 2026-05-01 16:40 | ASOS | 63 | 34 | 34 | 29.83 | 15 | SSW | |||
| Bridgeport | CT | 2026-05-01 16:50 | ASOS | 63 | 34 | 34 | 29.83 | 16 | SSW | |||
| Bridgeport | CT | 2026-05-01 16:55 | ASOS | 61 | 34 | 36 | 29.83 | 14 | SSW | |||
| Bridgeport | CT | 2026-05-01 17:00 | ASOS | 61 | 34 | 36 | 29.83 | 13 | SSW | |||
| Bridgeport | CT | 2026-05-01 17:10 | ASOS | 63 | 32 | 32 | 29.83 | 13 | SSW | |||
| Bridgeport | CT | 2026-05-01 17:20 | ASOS | 63 | 34 | 34 | 29.83 | 13 | SSW | |||
| Bridgeport | CT | 2026-05-01 17:30 | ASOS | 63 | 34 | 34 | 29.83 | 12 | SSW | |||
| Bridgeport | CT | 2026-05-01 17:35 | ASOS | 63 | 35 | 36 | 29.83 | 13 | SSW | |||
| Bridgeport | CT | 2026-05-01 17:40 | ASOS | 61 | 35 | 39 | 29.83 | 12 | SSW | |||
| Bridgeport | CT | 2026-05-01 17:50 | ASOS | 63 | 34 | 34 | 29.83 | 13 | SSW | |||
| Bridgeport | CT | 2026-05-01 18:00 | ASOS | 63 | 34 | 34 | 29.83 | 12 | SSW | |||
| Bridgeport | CT | 2026-05-01 19:50 | ASOS | 54 | 45 | 71 | 29.86 | 10 | SW | |||
| Bridgeport | CT | 2026-05-01 18:30 | ASOS | 59 | 43 | 55 | 29.84 | 10 | SSW | |||
| Bridgeport | CT | 2026-05-01 18:35 | ASOS | 57 | 43 | 59 | 29.84 | 13 | S | |||
| Bridgeport | CT | 2026-05-01 18:40 | ASOS | 57 | 43 | 59 | 29.84 | 15 | SSW | |||
| Bridgeport | CT | 2026-05-01 18:45 | ASOS | 57 | 43 | 59 | 29.84 | 14 | SSW | |||
| Bridgeport | CT | 2026-05-01 18:52 | ASOS | 57 | 43 | 59 | 29.84 | 16 | SSW | |||
| Bridgeport | CT | 2026-05-01 19:20 | ASOS | 55 | 43 | 62 | 29.84 | 15 | SSW | |||
| Bridgeport | CT | 2026-05-01 19:25 | ASOS | 55 | 43 | 62 | 29.85 | 14 | SSW | |||
| Bridgeport | CT | 2026-05-01 19:30 | ASOS | 55 | 43 | 62 | 29.85 | 13 | SW | |||
| Bridgeport | CT | 2026-05-01 19:40 | ASOS | 54 | 45 | 71 | 29.86 | 7 | WSW | |||
| Bridgeport | CT | 2026-05-01 19:45 | ASOS | 54 | 45 | 71 | 29.86 | 8 | SW | |||
| Bridgeport | CT | 2026-05-02 09:52 | ASOS | 53 | 44 | 71 | 29.89 | 6 | SW |
data collection created in 0.029155969619751 (queried in 0.006292) rendered in: 0.00031495094299316

